Pagrindinis puslapis
METAR-TAF:

METAR-TAF

Oro uostai :

Malabas, Pusiaujo Gvinėja

platuma: 03-45-18N, ilguma: 08-42-31E, Aukštis: 23 m

Dabartinis oras

Ataskaita buvo paskelbta 1 valandą ir 22 minutes, ne 15:00 UTC
Vėjas 5 kt iš Vakarų, svyruoja nuo Vakarų/Pietvakarių ir Šiaurės Vakarų
Temperatūra 30°C
Drėgmė 66%
Slėgis 1011 hPa
Matomumas 10 km arba daugiau
Mažai debesys ne aukštis 1000 ft

METAR: FGSL 201500Z 28005KT 240V310 9999 FEW010 30/23 Q1011 NOSIG

Laikas: 17:22 (16:22 UTC)

Prognozė

Ataskaita buvo paskelbta 5 valandos ir 22 minutes, ne 11:00 UTC
Prognozė galioja nuo 20 metu 12 UTC su 21 metu 18 UTC
Vėjas 8 kt iš Vakarų/Pietvakarių
Matomumas 10 km arba daugiau
Išsisklaidę debesys ne aukštis 1000 ft
Laikinai
nuo 20 metu 13 UTC su 20 metu 20 UTC
Su prošvaistėmis ne aukštis 1200 ft
Mažai debesys ne aukštis 2000 ft, Liūtiniai kamuoliniai debesys.

TAF: FGSL 201100Z 2012/2118 24008KT 9999 SCT010 TEMPO 2013/2020 BKN012 FEW020CB

Orai ataskaitas ir orų prognozės (METAR, TAF).

turimą stotys yra geltonos ir raudonos taškus žemėlapyje.

Perkelti pele per norėdami pamatyti stoties vardą.

Tada spustelėkite, norėdami matyti oro stebėjimo ir prognozės.

Norėdami pakeisti žemėlapį: spustelėkite ant žalios mygtukų su juodo kryžiaus žemyn,; žalią mygtuką su brūkšneliu, jei norite nutolinti; arba žalių rodyklių gretimoms žemėlapius.


METAR-TAF: